Time;durP1;ratioP1;P1;durP2;ratioP2;P2;SDS_P1;SDS_P2;PMS_P1;PMS_P2;Temp;Humidity;BMP_temperature;BMP_pressure;BME280_temperature;BME280_humidity;BME280_pressure;Samples;Min_cycle;Max_cycle;Signal;HPM_P1;HPM_P2
2022/10/02 00:00:00;;;;;;;;;41.33;33.67;;;;;14.09;98.60;100076.88;4988455;28;45389;-86
2022/10/02 00:02:43;;;;;;;;;32.00;30.00;;;;;14.08;98.01;100075.16;4975238;28;45478;-87
2022/10/02 00:05:17;;;;;;;;;31.67;29.00;;;;;14.08;97.98;100077.81;4988353;28;46643;-87
2022/10/02 00:08:02;;;;;;;;;39.33;32.33;;;;;14.05;98.12;100076.16;4972327;28;45400;-87
2022/10/02 00:10:40;;;;;;;;;36.33;32.00;;;;;14.05;98.40;100073.53;4974745;28;45259;-87
2022/10/02 00:13:11;;;;;;;;;34.00;30.75;;;;;14.06;98.34;100077.03;4990642;28;45410;-87
2022/10/02 00:15:41;;;;;;;;;40.00;32.67;;;;;14.06;98.77;100085.84;4967207;28;47040;-87
2022/10/02 00:18:12;;;;;;;;;39.33;33.00;;;;;14.06;98.52;100088.50;4982450;28;45361;-87
2022/10/02 00:20:48;;;;;;;;;33.00;31.67;;;;;14.08;98.89;100083.13;4978861;28;45288;-88
2022/10/02 00:23:26;;;;;;;;;35.00;31.00;;;;;14.06;98.79;100085.84;4978492;28;45194;-89
2022/10/02 00:26:04;;;;;;;;;31.00;30.25;;;;;14.04;98.98;100082.41;4994149;28;48393;-87
2022/10/02 00:28:57;;;;;;;;;34.00;30.00;;;;;14.05;98.81;100080.59;4975087;28;45427;-87
2022/10/02 00:31:40;;;;;;;;;36.00;30.33;;;;;14.03;98.77;100083.31;4975519;28;45472;-87
2022/10/02 00:34:08;;;;;;;;;30.25;29.00;;;;;14.02;98.71;100088.69;4971784;28;45539;-88
2022/10/02 00:36:49;;;;;;;;;32.75;29.00;;;;;13.99;99.18;100084.34;4984614;28;47214;-87
2022/10/02 00:39:17;;;;;;;;;35.75;31.25;;;;;14.00;99.25;100080.78;4982967;28;45521;-86
2022/10/02 00:42:09;;;;;;;;;30.00;26.75;;;;;13.97;99.40;100087.06;4976273;28;45260;-87
2022/10/02 00:44:55;;;;;;;;;29.25;29.00;;;;;13.97;98.98;100095.00;4986055;28;45285;-88
2022/10/02 00:47:42;;;;;;;;;30.00;28.25;;;;;13.95;98.92;100099.50;4988653;28;45422;-86
2022/10/02 00:50:26;;;;;;;;;27.50;26.50;;;;;13.94;99.20;100096.91;4991037;28;45299;-87
2022/10/02 00:53:39;;;;;;;;;32.75;31.50;;;;;13.94;99.23;100103.06;4965067;28;45501;-86
2022/10/02 00:56:23;;;;;;;;;32.25;29.50;;;;;13.95;98.92;100094.19;4974176;28;45347;-86
2022/10/02 00:59:16;;;;;;;;;28.75;28.00;;;;;13.95;99.02;100102.16;4968953;28;45647;-87
2022/10/02 01:01:52;;;;;;;;;41.33;33.00;;;;;13.95;99.11;100104.81;4971620;28;45433;-88
2022/10/02 01:04:29;;;;;;;;;35.33;31.67;;;;;13.94;99.04;100105.72;4971543;28;45370;-87
2022/10/02 01:06:55;;;;;;;;;35.33;30.33;;;;;13.93;99.58;100100.47;4975744;28;45430;-87
2022/10/02 01:09:22;;;;;;;;;28.67;27.33;;;;;13.93;99.46;100100.47;4975423;28;46731;-87
2022/10/02 01:11:48;;;;;;;;;28.25;27.25;;;;;13.92;99.62;100088.16;4970897;28;45418;-87
2022/10/02 01:14:14;;;;;;;;;31.75;28.75;;;;;13.93;99.24;100097.84;4968877;28;45480;-87
2022/10/02 01:16:41;;;;;;;;;23.50;23.50;;;;;13.94;99.58;100097.78;4991061;28;45468;-87
2022/10/02 01:19:23;;;;;;;;;28.00;27.75;;;;;13.96;99.45;100095.06;4974051;28;47673;-87
2022/10/02 01:21:57;;;;;;;;;30.75;27.00;;;;;13.99;99.69;100097.59;5005226;28;45435;-87
2022/10/02 01:24:35;;;;;;;;;31.25;29.50;;;;;13.96;99.38;100095.94;4982902;28;45490;-86
2022/10/02 01:27:01;;;;;;;;;25.75;25.00;;;;;13.96;99.12;100089.75;4984509;28;45269;-88
2022/10/02 01:29:27;;;;;;;;;32.67;29.00;;;;;13.95;99.23;100091.56;4967414;28;47364;-88
2022/10/02 01:31:54;;;;;;;;;30.50;27.75;;;;;13.92;99.45;100082.84;4988373;28;45450;-88
2022/10/02 01:34:21;;;;;;;;;30.50;28.25;;;;;13.90;99.63;100080.28;4971146;28;45412;-88
2022/10/02 01:36:47;;;;;;;;;28.00;26.50;;;;;13.87;99.56;100079.53;4988248;28;45421;-87
2022/10/02 01:39:13;;;;;;;;;26.75;25.00;;;;;13.84;99.36;100077.00;4974515;28;46583;-87
2022/10/02 01:41:42;;;;;;;;;27.75;26.25;;;;;13.83;99.78;100091.16;4971884;28;45557;-88
2022/10/02 01:44:09;;;;;;;;;28.50;26.25;;;;;13.81;100.00;100100.94;4970799;28;45258;-87
2022/10/02 01:46:38;;;;;;;;;32.75;29.25;;;;;13.82;99.90;100100.03;4984590;28;45260;-87
2022/10/02 01:49:44;;;;;;;;;32.25;27.75;;;;;13.80;99.90;100094.78;4985480;28;48003;-86
2022/10/02 01:52:47;;;;;;;;;22.75;22.00;;;;;13.80;99.82;100094.78;4963727;28;45511;-87
2022/10/02 01:55:16;;;;;;;;;28.50;26.50;;;;;13.84;99.77;100092.91;4985713;28;45399;-86
2022/10/02 01:57:41;;;;;;;;;29.25;26.75;;;;;13.83;99.58;100102.63;4972853;28;45248;-87
2022/10/02 02:00:15;;;;;;;;;34.00;30.00;;;;;13.84;99.20;100095.53;4977361;28;47951;-87
2022/10/02 02:02:52;;;;;;;;;32.25;29.00;;;;;13.85;99.23;100094.63;4971712;28;45835;-87
2022/10/02 02:05:57;;;;;;;;;26.25;24.00;;;;;13.83;99.59;100085.88;4963514;28;45444;-87
2022/10/02 02:08:35;;;;;;;;;29.50;25.00;;;;;13.85;99.26;100084.03;4963889;28;45512;-87
2022/10/02 02:11:04;;;;;;;;;28.00;26.00;;;;;13.84;99.27;100074.34;4972767;28;45529;-85
2022/10/02 02:13:44;;;;;;;;;23.00;21.25;;;;;13.85;99.19;100068.13;4989160;28;45449;-86
2022/10/02 02:16:22;;;;;;;;;25.50;24.50;;;;;13.84;99.51;100074.34;4974866;28;45564;-87
2022/10/02 02:18:53;;;;;;;;;27.75;25.00;;;;;13.84;99.52;100082.28;4974915;28;45413;-87
2022/10/02 02:21:47;;;;;;;;;29.50;25.75;;;;;13.84;99.64;100090.25;4971565;28;46533;-87
2022/10/02 02:24:26;;;;;;;;;30.25;27.50;;;;;13.82;99.29;100079.69;4974686;28;45495;-87
2022/10/02 02:26:57;;;;;;;;;27.75;26.75;;;;;13.82;99.72;100069.09;4977129;28;45360;-87
2022/10/02 02:29:26;;;;;;;;;28.50;25.25;;;;;13.81;99.62;100070.00;4977129;28;45383;-87
2022/10/02 02:31:57;;;;;;;;;25.00;23.50;;;;;13.82;99.70;100062.94;4977249;28;46678;-87
2022/10/02 02:34:29;;;;;;;;;29.25;26.25;;;;;13.81;99.34;100058.53;4976292;28;45690;-87
2022/10/02 02:37:04;;;;;;;;;24.75;23.25;;;;;13.80;99.54;100059.47;4989323;28;45432;-86
2022/10/02 02:39:39;;;;;;;;;27.25;26.50;;;;;13.79;99.32;100063.91;4973812;28;45856;-87
2022/10/02 02:42:09;;;;;;;;;26.50;23.50;;;;;13.80;99.90;100064.78;4976296;28;48128;-86
2022/10/02 02:44:47;;;;;;;;;29.00;24.00;;;;;13.78;99.78;100067.47;4989071;28;45267;-86
2022/10/02 02:47:22;;;;;;;;;29.00;27.75;;;;;13.77;99.86;100070.19;4981150;28;45456;-87
2022/10/02 02:49:57;;;;;;;;;29.75;28.25;;;;;13.78;99.36;100066.59;4976662;28;45568;-86
2022/10/02 02:52:51;;;;;;;;;25.75;25.75;;;;;13.75;99.47;100072.88;4992675;28;47340;-85
2022/10/02 02:55:26;;;;;;;;;27.75;27.75;;;;;13.72;99.59;100065.06;4992128;28;45493;-85
2022/10/02 02:57:58;;;;;;;;;39.00;30.00;;;;;13.73;100.00;100068.59;4977552;28;45371;-85
2022/10/02 03:00:24;;;;;;;;;26.50;25.00;;;;;13.72;99.83;100069.50;4976959;28;45494;-85
2022/10/02 03:02:53;;;;;;;;;32.50;28.50;;;;;13.70;100.00;100068.69;4975471;28;47251;-86
2022/10/02 03:05:19;;;;;;;;;31.25;28.75;;;;;13.67;99.64;100067.03;4975992;28;45485;-86
2022/10/02 03:07:58;;;;;;;;;33.25;26.00;;;;;13.68;99.85;100060.81;4977620;28;45518;-85
2022/10/02 03:10:36;;;;;;;;;29.67;27.67;;;;;13.65;99.99;100052.09;4992423;28;45845;-86
2022/10/02 03:13:27;;;;;;;;;29.75;26.00;;;;;13.66;100.00;100057.34;4976995;28;46383;-85
2022/10/02 03:16:17;;;;;;;;;29.00;27.00;;;;;13.66;100.00;100053.84;4987816;28;45615;-85
2022/10/02 03:19:09;;;;;;;;;30.75;29.50;;;;;13.64;100.00;100045.94;4970240;28;45478;-85
2022/10/02 03:21:44;;;;;;;;;32.25;28.25;;;;;13.63;100.00;100042.41;4975327;28;45162;-86
2022/10/02 03:24:22;;;;;;;;;35.00;31.67;;;;;13.62;100.00;100048.66;4976821;28;45467;-86
2022/10/02 03:27:22;;;;;;;;;28.75;27.00;;;;;13.62;99.81;100045.13;4972522;28;45515;-85
2022/10/02 03:29:58;;;;;;;;;33.50;27.50;;;;;13.61;99.95;100027.50;4972000;28;45509;-85
2022/10/02 03:32:26;;;;;;;;;32.67;31.00;;;;;13.59;99.95;100024.91;4991768;28;45362;-86
2022/10/02 03:34:52;;;;;;;;;33.67;30.00;;;;;13.58;100.00;100028.47;4991469;28;47270;-86
2022/10/02 03:37:18;;;;;;;;;32.00;30.00;;;;;13.57;100.00;100025.91;4975731;28;45334;-86
2022/10/02 03:39:44;;;;;;;;;37.33;33.33;;;;;13.55;100.00;100023.31;4972580;28;45456;-86
2022/10/02 03:42:12;;;;;;;;;40.67;33.33;;;;;13.55;100.00;100031.28;4991316;28;45495;-86
2022/10/02 03:44:37;;;;;;;;;33.00;28.25;;;;;13.53;100.00;100034.88;4975415;28;47801;-86
2022/10/02 03:47:03;;;;;;;;;24.00;23.00;;;;;13.53;100.00;100054.31;4974356;28;45379;-85
2022/10/02 03:49:28;;;;;;;;;32.50;26.75;;;;;13.51;100.00;100049.97;4975629;28;45245;-86
2022/10/02 03:51:54;;;;;;;;;32.25;30.00;;;;;13.52;100.00;100049.06;4988644;28;45454;-86
2022/10/02 03:54:21;;;;;;;;;32.75;30.25;;;;;13.51;100.00;100050.84;4974045;28;46475;-86
2022/10/02 03:57:01;;;;;;;;;39.33;32.67;;;;;13.51;100.00;100049.97;4974697;28;45615;-86
2022/10/02 03:59:45;;;;;;;;;36.25;30.00;;;;;13.51;100.00;100049.97;4975102;28;45264;-86
2022/10/02 04:02:32;;;;;;;;;39.33;32.33;;;;;13.50;100.00;100054.41;4974190;28;45367;-86
2022/10/02 04:05:32;;;;;;;;;43.00;33.00;;;;;13.51;100.00;100056.13;4964087;28;46429;-86
2022/10/02 04:08:15;;;;;;;;;35.67;30.33;;;;;13.50;100.00;100054.41;4958963;28;45625;-86
2022/10/02 04:10:53;;;;;;;;;45.00;35.33;;;;;13.49;100.00;100052.69;4976702;28;45284;-86
2022/10/02 04:13:41;;;;;;;;;45.67;36.33;;;;;13.48;100.00;100064.19;4975170;28;45391;-86
2022/10/02 04:16:30;;;;;;;;;39.67;34.33;;;;;13.45;100.00;100063.44;4971587;28;45689;-86
2022/10/02 04:19:32;;;;;;;;;46.33;36.33;;;;;13.43;100.00;100074.09;4976470;28;45316;-86
2022/10/02 04:22:07;;;;;;;;;41.67;35.67;;;;;13.41;100.00;100073.28;4975886;28;45233;-86
2022/10/02 04:24:58;;;;;;;;;43.00;36.00;;;;;13.39;100.00;100079.56;4970761;28;45270;-86
2022/10/02 04:27:39;;;;;;;;;41.33;34.00;;;;;13.40;100.00;100078.66;4971218;28;48077;-86
2022/10/02 04:30:09;;;;;;;;;41.67;33.00;;;;;13.39;100.00;100084.88;4968792;28;45230;-86
2022/10/02 04:32:36;;;;;;;;;35.00;32.67;;;;;13.38;100.00;100085.78;4975917;28;45346;-85
2022/10/02 04:35:13;;;;;;;;;41.00;35.00;;;;;13.36;100.00;100069.09;4975848;28;45469;-85
2022/10/02 04:38:16;;;;;;;;;36.67;32.00;;;;;13.36;100.00;100071.72;4975817;28;45328;-85
2022/10/02 04:41:13;;;;;;;;;39.00;32.00;;;;;13.34;100.00;100060.31;4966808;28;46370;-85
2022/10/02 04:43:47;;;;;;;;;42.00;33.33;;;;;13.33;100.00;100055.94;4976695;28;45584;-84
2022/10/02 04:46:25;;;;;;;;;38.67;33.33;;;;;13.33;100.00;100069.19;4975807;28;45278;-85
2022/10/02 04:49:24;;;;;;;;;33.00;29.33;;;;;13.32;100.00;100075.41;4975782;28;45307;-85
2022/10/02 04:52:18;;;;;;;;;40.00;33.00;;;;;13.30;100.00;100064.88;4976165;28;45327;-85
2022/10/02 04:55:24;;;;;;;;;43.00;33.33;;;;;13.30;100.00;100071.94;4975649;28;45260;-85
2022/10/02 04:57:59;;;;;;;;;39.67;34.33;;;;;13.27;100.00;100067.63;4971548;28;45332;-85
2022/10/02 05:00:32;;;;;;;;;37.00;32.67;;;;;13.25;100.00;100065.00;4976233;28;46352;-85
2022/10/02 05:03:09;;;;;;;;;35.00;32.33;;;;;13.25;100.00;100066.81;4974490;28;45403;-85
2022/10/02 05:05:59;;;;;;;;;43.00;34.00;;;;;13.24;100.00;100062.41;4971758;28;45382;-86
2022/10/02 05:09:05;;;;;;;;;38.67;33.00;;;;;13.23;100.00;100058.94;4964040;28;45308;-86
2022/10/02 05:11:43;;;;;;;;;36.67;30.33;;;;;13.21;100.00;100050.19;4973980;28;47150;-86
2022/10/02 05:14:18;;;;;;;;;32.00;29.75;;;;;13.20;100.00;100052.88;4973823;28;45294;-86
2022/10/02 05:16:53;;;;;;;;;34.67;30.00;;;;;13.18;100.00;100049.41;4975854;28;45406;-86
2022/10/02 05:19:37;;;;;;;;;40.75;31.00;;;;;13.17;100.00;100056.50;4974186;28;45943;-86
2022/10/02 05:22:40;;;;;;;;;34.33;32.33;;;;;13.19;100.00;100061.75;4970936;28;45446;-86
2022/10/02 05:25:40;;;;;;;;;33.25;28.00;;;;;13.18;100.00;100057.38;4978840;28;45249;-86
2022/10/02 05:28:08;;;;;;;;;37.50;28.00;;;;;13.17;100.00;100060.94;4945615;28;45372;-85
2022/10/02 05:30:53;;;;;;;;;31.75;29.00;;;;;13.16;100.00;100061.84;4958688;28;45579;-85
2022/10/02 05:33:54;;;;;;;;;29.25;26.25;;;;;13.16;100.00;100057.41;4970779;28;48121;-85
2022/10/02 05:36:41;;;;;;;;;29.67;29.33;;;;;13.17;100.00;100053.00;4934109;28;45450;-85
2022/10/02 05:39:27;;;;;;;;;32.67;29.00;;;;;13.16;100.00;100049.47;4953429;28;45469;-84
2022/10/02 05:41:55;;;;;;;;;34.33;31.00;;;;;13.17;100.00;100045.91;4986843;28;45563;-86
2022/10/02 05:44:41;;;;;;;;;32.25;29.00;;;;;13.18;100.00;100052.94;4975517;28;48292;-87
2022/10/02 05:47:12;;;;;;;;;34.00;31.00;;;;;13.19;100.00;100059.97;4975269;28;45379;-84
2022/10/02 05:49:42;;;;;;;;;33.33;31.00;;;;;13.22;100.00;100072.22;4970544;28;45211;-78
2022/10/02 05:52:18;;;;;;;;;31.25;27.00;;;;;13.26;100.00;100076.47;4974840;28;45577;-79
2022/10/02 05:54:59;;;;;;;;;32.00;29.75;;;;;13.29;100.00;100065.78;4987823;28;47386;-79
2022/10/02 05:58:10;;;;;;;;;29.50;26.75;;;;;13.34;100.00;100085.03;4965181;28;45358;-79
2022/10/02 06:00:45;;;;;;;;;30.50;28.00;;;;;13.39;100.00;100083.09;4956344;28;45453;-78
2022/10/02 06:03:39;;;;;;;;;33.33;29.00;;;;;13.43;100.00;100086.47;4971144;28;45443;-81
2022/10/02 06:06:19;;;;;;;;;36.00;32.33;;;;;13.48;100.00;100076.56;4970135;28;47229;-81
2022/10/02 06:08:53;;;;;;;;;41.33;31.33;;;;;13.52;100.00;100080.84;4978341;28;45364;-79
2022/10/02 06:11:30;;;;;;;;;29.50;27.00;;;;;13.56;100.00;100074.53;4978251;28;45273;-79
2022/10/02 06:14:22;;;;;;;;;33.00;26.50;;;;;13.61;100.00;100086.66;4978004;28;45665;-79
2022/10/02 06:16:54;;;;;;;;;28.50;26.50;;;;;13.65;100.00;100083.91;4967223;28;46452;-79
2022/10/02 06:19:29;;;;;;;;;41.00;33.25;;;;;13.68;100.00;100078.50;4977891;28;45345;-81
2022/10/02 06:22:21;;;;;;;;;32.67;30.67;;;;;13.73;100.00;100088.00;4973513;28;45448;-79
2022/10/02 06:24:52;;;;;;;;;34.33;31.00;;;;;13.77;100.00;100089.59;4966603;28;45469;-78
2022/10/02 06:27:37;;;;;;;;;31.50;27.75;;;;;13.83;100.00;100096.47;4978093;28;45544;-79
2022/10/02 06:30:07;;;;;;;;;38.00;31.50;;;;;13.89;100.00;100096.25;4978266;28;45231;-80
2022/10/02 06:33:05;;;;;;;;;37.00;30.75;;;;;13.97;100.00;100100.31;4977835;28;45412;-80
2022/10/02 06:35:52;;;;;;;;;34.00;31.25;;;;;14.07;100.00;100107.94;4976395;28;45545;-79
2022/10/02 06:39:00;;;;;;;;;32.75;30.50;;;;;14.18;100.00;100111.88;4985988;28;46167;-79
2022/10/02 06:41:36;;;;;;;;;38.75;30.00;;;;;14.28;100.00;100105.28;4965879;28;45605;-80
2022/10/02 06:44:15;;;;;;;;;34.75;27.75;;;;;14.40;100.00;100101.34;4979537;28;45513;-79
2022/10/02 06:46:59;;;;;;;;;28.00;26.75;;;;;14.48;100.00;100096.56;4964295;28;45284;-79
2022/10/02 06:50:00;;;;;;;;;25.50;22.50;;;;;14.57;100.00;100098.00;4977136;28;46119;-79
2022/10/02 06:52:56;;;;;;;;;32.50;29.75;;;;;14.63;100.00;100092.41;4967118;28;45244;-79
2022/10/02 06:55:28;;;;;;;;;25.25;20.75;;;;;14.67;100.00;100091.38;4964644;28;45458;-79
2022/10/02 06:57:56;;;;;;;;;25.25;23.75;;;;;14.70;99.60;100095.69;4973233;28;45359;-79
2022/10/02 07:00:21;;;;;;;;;30.75;28.00;;;;;14.73;100.00;100093.78;4977250;28;46376;-71
2022/10/02 07:02:53;;;;;;;;;21.00;18.25;;;;;14.81;99.50;100085.50;4976480;28;45410;-53
2022/10/02 07:05:39;;;;;;;;;23.50;21.25;;;;;14.87;99.70;100078.16;4977143;28;45252;-53
2022/10/02 07:08:35;;;;;;;;;27.75;26.50;;;;;14.91;99.39;100070.91;4975956;28;45459;-50
2022/10/02 07:11:39;;;;;;;;;24.75;23.00;;;;;14.97;99.53;100067.97;4956171;28;46376;-51
2022/10/02 07:14:34;;;;;;;;;26.00;22.50;;;;;15.05;99.07;100067.66;4967450;28;45423;-52
2022/10/02 07:17:14;;;;;;;;;27.25;22.75;;;;;15.11;99.06;100054.97;4957227;28;45416;-52
2022/10/02 07:20:02;;;;;;;;;23.00;21.50;;;;;15.18;98.78;100055.56;4956682;28;45382;-50
2022/10/02 07:22:42;;;;;;;;;26.50;26.50;;;;;15.24;98.62;100056.19;4971296;28;45376;-67
2022/10/02 07:25:31;;;;;;;;;26.50;23.75;;;;;15.32;98.04;100061.13;4957016;28;45399;-62
2022/10/02 07:28:06;;;;;;;;;24.00;22.75;;;;;15.39;98.16;100059.94;4959435;28;45411;-63
2022/10/02 07:30:55;;;;;;;;;23.25;19.00;;;;;15.48;97.60;100064.81;4970041;28;45447;-62
2022/10/02 07:33:52;;;;;;;;;22.00;21.00;;;;;15.55;97.52;100062.78;4970350;28;46520;-62
2022/10/02 07:36:43;;;;;;;;;20.75;20.25;;;;;15.63;97.07;100060.63;4972892;28;45664;-62
2022/10/02 07:39:38;;;;;;;;;25.75;24.00;;;;;15.68;96.63;100063.97;4971060;28;45304;-62
2022/10/02 07:42:24;;;;;;;;;24.50;22.00;;;;;15.75;96.79;100061.91;4973192;28;45332;-62
2022/10/02 07:45:20;;;;;;;;;32.00;28.00;;;;;15.85;96.32;100064.03;4974750;28;46723;-62
2022/10/02 07:48:10;;;;;;;;;26.25;24.75;;;;;15.95;95.74;100062.66;4986442;28;45588;-62
2022/10/02 07:50:41;;;;;;;;;32.50;28.25;;;;;16.01;95.63;100053.53;4973017;28;45363;-62
2022/10/02 07:53:37;;;;;;;;;32.25;28.50;;;;;16.08;95.26;100052.34;4973519;28;45411;-62
2022/10/02 07:56:06;;;;;;;;;32.00;30.50;;;;;16.16;95.45;100059.94;4971782;28;45415;-63
2022/10/02 07:58:43;;;;;;;;;30.00;28.75;;;;;16.23;95.03;100062.25;4973969;28;45377;-62
2022/10/02 08:01:21;;;;;;;;;28.50;27.50;;;;;16.31;94.67;100056.53;4975588;28;45443;-62
2022/10/02 08:04:11;;;;;;;;;21.50;20.50;;;;;16.35;94.51;100063.44;4971753;28;45378;-62
2022/10/02 08:06:37;;;;;;;;;31.00;24.25;;;;;16.36;94.47;100066.03;4975345;28;46800;-62
2022/10/02 08:09:11;;;;;;;;;26.25;25.00;;;;;16.38;94.20;100066.81;4974518;28;45570;-62
2022/10/02 08:11:55;;;;;;;;;25.50;24.50;;;;;16.42;94.31;100070.19;4974265;28;45410;-62
2022/10/02 08:14:38;;;;;;;;;32.50;28.00;;;;;16.47;94.09;100070.81;4974767;28;45551;-62
2022/10/02 08:17:29;;;;;;;;;17.75;16.00;;;;;16.53;94.10;100077.66;4975479;28;46178;-63
2022/10/02 08:20:22;;;;;;;;;21.80;20.60;;;;;16.60;93.86;100079.91;4969542;28;45743;-60
2022/10/02 08:23:00;;;;;;;;;18.50;17.75;;;;;16.69;93.46;100070.66;4970332;28;45616;-61
2022/10/02 08:25:34;;;;;;;;;19.50;18.00;;;;;16.78;94.03;100067.50;4974676;28;45387;-60
2022/10/02 08:28:35;;;;;;;;;27.00;20.25;;;;;16.87;93.49;100075.06;4973993;28;45415;-60
2022/10/02 08:31:01;;;;;;;;;12.60;11.40;;;;;16.95;92.89;100066.66;4942638;28;45374;-60
2022/10/02 08:33:30;;;;;;;;;14.20;13.80;;;;;17.02;93.38;100070.75;4971225;28;45593;-61
2022/10/02 08:36:18;;;;;;;;;24.00;20.00;;;;;17.11;92.66;100067.59;4974373;28;45386;-60
2022/10/02 08:38:53;;;;;;;;;25.00;22.75;;;;;17.18;92.36;100076.16;4969840;28;46491;-61
2022/10/02 08:42:03;;;;;;;;;21.80;18.60;;;;;17.19;91.73;100085.88;4974521;28;45707;-60
2022/10/02 08:44:53;;;;;;;;;24.50;21.75;;;;;17.23;91.82;100092.78;4973896;28;46550;-60
2022/10/02 08:47:40;;;;;;;;;29.00;20.25;;;;;17.29;91.52;100074.63;4966165;28;45616;-60
2022/10/02 08:50:33;;;;;;;;;30.00;25.50;;;;;17.38;91.58;100082.16;4973029;28;46309;-60
2022/10/02 08:53:21;;;;;;;;;21.50;18.75;;;;;17.46;91.32;100081.75;4973672;28;45387;-61
2022/10/02 08:56:24;;;;;;;;;23.75;22.00;;;;;17.52;90.98;100081.44;4970789;28;45491;-60
2022/10/02 08:59:04;;;;;;;;;19.25;19.00;;;;;17.54;90.50;100089.34;4973380;28;45432;-60
2022/10/02 09:01:41;;;;;;;;;15.00;14.60;;;;;17.58;90.44;100085.59;4973398;28;45841;-61
2022/10/02 09:04:44;;;;;;;;;16.60;15.20;;;;;17.65;90.86;100079.00;4972294;28;45483;-61
2022/10/02 09:07:12;;;;;;;;;27.25;21.75;;;;;17.65;90.29;100066.53;4970805;28;45442;-61
2022/10/02 09:10:24;;;;;;;;;22.50;22.50;;;;;17.67;90.11;100067.31;4974286;28;45435;-60
2022/10/02 09:13:24;;;;;;;;;24.75;23.25;;;;;17.69;90.03;100078.75;4970201;28;45437;-61
2022/10/02 09:16:31;;;;;;;;;23.00;21.60;;;;;17.68;90.10;100071.69;4971698;28;45489;-60
2022/10/02 09:19:13;;;;;;;;;20.00;17.00;;;;;17.67;90.19;100069.97;4971640;28;45527;-60
2022/10/02 09:21:55;;;;;;;;;19.50;17.50;;;;;17.67;90.26;100069.97;4964594;28;45496;-60
2022/10/02 09:24:42;;;;;;;;;26.75;25.50;;;;;17.71;90.04;100076.88;4974811;28;45582;-60
2022/10/02 09:27:46;;;;;;;;;26.60;25.40;;;;;17.73;90.47;100076.78;4974652;28;45356;-60
2022/10/02 09:30:19;;;;;;;;;23.75;22.00;;;;;17.74;90.49;100070.50;4973284;28;45417;-60
2022/10/02 09:33:19;;;;;;;;;16.00;14.50;;;;;17.75;90.50;100072.25;4970219;28;45399;-60
2022/10/02 09:35:53;;;;;;;;;22.25;20.25;;;;;17.77;90.81;100067.66;4976732;28;45450;-60
2022/10/02 09:38:28;;;;;;;;;25.00;20.60;;;;;17.78;91.00;100053.38;4976426;28;45511;-60
2022/10/02 09:41:06;;;;;;;;;21.50;19.50;;;;;17.79;90.87;100044.44;4970777;28;45525;-77
2022/10/02 09:43:37;;;;;;;;;24.75;18.50;;;;;17.81;90.95;100050.53;4975466;28;45573;-60
2022/10/02 09:46:21;;;;;;;;;18.25;18.25;;;;;17.83;90.85;100045.13;4974533;28;45571;-65
2022/10/02 09:49:08;;;;;;;;;17.60;17.00;;;;;17.85;91.26;100035.22;4974181;28;45487;-61
2022/10/02 09:51:52;;;;;;;;;21.50;18.25;;;;;17.89;90.88;100040.31;4972868;28;45529;-60
2022/10/02 09:54:29;;;;;;;;;18.75;18.00;;;;;17.96;90.86;100039.03;4975850;28;45596;-61
2022/10/02 09:57:15;;;;;;;;;17.75;15.25;;;;;18.02;90.40;100037.81;4976345;28;45510;-61
2022/10/02 10:00:29;;;;;;;;;21.80;19.40;;;;;18.06;90.39;100026.91;4976682;28;45440;-60
2022/10/02 10:03:21;;;;;;;;;18.75;17.50;;;;;18.07;90.21;100017.97;4964716;28;45479;-62
2022/10/02 10:05:52;;;;;;;;;19.50;16.00;;;;;18.12;89.97;100015.00;4969647;28;45515;-62
2022/10/02 10:08:33;;;;;;;;;24.75;23.50;;;;;18.18;89.42;100014.66;4975776;28;46226;-62
2022/10/02 10:10:59;;;;;;;;;22.40;19.80;;;;;18.22;89.62;100004.69;4976882;28;45483;-62
2022/10/02 10:13:33;;;;;;;;;23.25;23.25;;;;;18.25;89.37;100015.19;4975868;28;45514;-62
2022/10/02 10:16:32;;;;;;;;;28.75;25.50;;;;;18.29;88.99;100009.56;4974122;28;45436;-62
2022/10/02 10:19:30;;;;;;;;;28.00;27.00;;;;;18.34;89.17;100015.50;4974652;28;45492;-61
2022/10/02 10:22:14;;;;;;;;;14.40;14.00;;;;;18.34;88.35;100010.16;4974127;28;45463;-61
2022/10/02 10:25:01;;;;;;;;;13.60;13.00;;;;;18.34;87.68;100012.84;4975978;28;45217;-61
2022/10/02 10:27:48;;;;;;;;;16.00;15.25;;;;;18.35;87.76;100005.69;4972610;28;45474;-61
2022/10/02 10:30:28;;;;;;;;;19.50;17.50;;;;;18.36;87.05;100007.41;4973709;28;45603;-62
2022/10/02 10:33:07;;;;;;;;;18.80;18.80;;;;;18.38;87.75;100002.84;4972723;28;45421;-62
2022/10/02 10:35:52;;;;;;;;;18.50;17.50;;;;;18.42;87.20;100001.72;4976259;28;45497;-62
2022/10/02 10:38:33;;;;;;;;;17.25;16.50;;;;;18.45;87.40;100001.53;4975241;28;45736;-62
2022/10/02 10:41:18;;;;;;;;;15.50;14.50;;;;;18.51;86.96;99986.97;4975862;28;46138;-62
2022/10/02 10:44:08;;;;;;;;;19.80;16.40;;;;;18.54;86.67;99993.00;4970513;28;45598;-62
2022/10/02 10:47:06;;;;;;;;;13.00;12.00;;;;;18.56;85.97;99993.75;4975456;28;45531;-62
2022/10/02 10:50:05;;;;;;;;;14.75;13.25;;;;;18.59;85.22;99990.94;4969050;28;45574;-62
2022/10/02 10:53:04;;;;;;;;;16.50;15.00;;;;;18.64;85.59;99987.97;4967463;28;46242;-62
2022/10/02 10:55:45;;;;;;;;;11.80;11.60;;;;;18.68;85.61;99987.72;4971024;28;45838;-62
2022/10/02 10:58:30;;;;;;;;;14.40;12.00;;;;;18.72;85.63;99991.94;4974336;28;45570;-62
2022/10/02 11:01:53;;;;;;;;;7.75;6.25;;;;;18.75;85.43;99990.91;4971524;28;45359;-62
2022/10/02 11:04:35;;;;;;;;;11.60;9.80;;;;;18.76;84.64;99990.81;4970557;28;46336;-62
2022/10/02 11:07:15;;;;;;;;;11.60;11.60;;;;;18.80;85.30;99991.47;4977517;28;45668;-62
2022/10/02 11:09:46;;;;;;;;;13.00;11.80;;;;;18.85;85.13;99985.84;4972044;28;45473;-62
2022/10/02 11:12:20;;;;;;;;;10.60;9.40;;;;;18.91;84.88;99989.03;4959250;28;45506;-62
2022/10/02 11:14:46;;;;;;;;;12.00;11.00;;;;;18.97;84.84;99982.44;4973462;28;48297;-62
2022/10/02 11:17:33;;;;;;;;;9.00;9.00;;;;;19.04;84.46;99992.66;4970558;28;45422;-62
2022/10/02 11:20:28;;;;;;;;;11.60;10.20;;;;;19.10;84.27;99984.25;4972076;28;45680;-62
2022/10/02 11:23:15;;;;;;;;;10.00;8.80;;;;;19.15;84.55;99986.66;4960394;28;45338;-62
2022/10/02 11:25:55;;;;;;;;;9.20;7.00;;;;;19.21;83.69;99982.75;4973266;28;46316;-62
2022/10/02 11:28:39;;;;;;;;;10.00;9.80;;;;;19.28;83.62;99976.03;4971627;28;45486;-62
2022/10/02 11:31:19;;;;;;;;;8.40;7.80;;;;;19.36;83.74;99971.09;4972405;28;45476;-62
2022/10/02 11:33:56;;;;;;;;;10.80;10.00;;;;;19.44;83.32;99977.66;4969708;28;45447;-62
2022/10/02 11:36:56;;;;;;;;;10.20;7.00;;;;;19.51;82.61;99972.84;4987049;28;48241;-62
2022/10/02 11:40:11;;;;;;;;;8.00;8.00;;;;;19.59;83.25;99970.56;4972990;28;45504;-62
2022/10/02 11:43:31;;;;;;;;;10.00;6.80;;;;;19.68;81.85;99975.31;4974740;28;45494;-62
2022/10/02 11:46:10;;;;;;;;;6.00;4.60;;;;;19.72;81.45;99968.81;4940019;28;45499;-62
2022/10/02 11:49:25;;;;;;;;;6.20;5.00;;;;;19.80;81.74;99963.81;4943785;28;46359;-62
2022/10/02 11:51:59;;;;;;;;;7.00;7.00;;;;;19.89;81.49;99965.03;4972545;28;45387;-62
2022/10/02 11:54:36;;;;;;;;;5.80;5.00;;;;;19.97;81.20;99967.19;4973527;28;45566;-61
2022/10/02 11:57:38;;;;;;;;;5.60;5.60;;;;;20.05;80.56;99959.53;4979471;28;45396;-61
2022/10/02 12:00:16;;;;;;;;;7.00;6.60;;;;;20.13;79.82;99955.38;4967803;28;47408;-61
2022/10/02 12:02:46;;;;;;;;;4.60;4.60;;;;;20.23;80.30;99955.66;4955550;28;45485;-61
2022/10/02 12:05:26;;;;;;;;;5.00;5.00;;;;;20.31;79.18;99949.75;4971638;28;45375;-61
2022/10/02 12:07:52;;;;;;;;;5.00;5.00;;;;;20.36;78.83;99948.53;4973987;28;45421;-67
2022/10/02 12:10:45;;;;;;;;;5.00;5.00;;;;;20.44;78.06;99948.88;4962268;28;46269;-61
2022/10/02 12:13:23;;;;;;;;;5.00;5.00;;;;;20.52;77.48;99941.19;4973543;28;45479;-61
2022/10/02 12:16:16;;;;;;;;;4.80;4.80;;;;;20.60;77.04;99940.69;4975575;28;45324;-60